Time,TemperatureF,DewpointF,PressureIn,WindDirection,WindDirectionDegrees,WindSpeedMPH,WindSpeedGustMPH,Humidity,HourlyPrecipIn,Conditions,Clouds,dailyrainin,SoftwareType,DateUTC
2013-10-07 00:02:00,61.5,59.0,29.97,SE,131,1.0,7.0,92,0.00,,,0.00,weatherlink.com 1.10,2013-10-07 04:02:00,
2013-10-07 00:17:00,61.3,59.0,29.97,SSW,198,2.0,9.0,93,0.00,,,0.00,weatherlink.com 1.10,2013-10-07 04:17:00,
2013-10-07 00:32:00,61.2,60.0,29.97,ESE,123,1.0,6.0,94,0.01,,,0.01,weatherlink.com 1.10,2013-10-07 04:32:00,
2013-10-07 00:47:00,61.2,60.0,29.96,East,98,2.0,6.0,94,0.01,,,0.01,weatherlink.com 1.10,2013-10-07 04:47:00,
2013-10-07 01:02:00,60.7,59.0,29.96,East,91,1.0,7.0,94,0.01,,,0.01,weatherlink.com 1.10,2013-10-07 05:02:00,
2013-10-07 01:17:00,60.6,59.0,29.95,ESE,123,4.0,8.0,94,0.01,,,0.01,weatherlink.com 1.10,2013-10-07 05:17:00,
2013-10-07 01:32:00,60.8,59.0,29.95,ESE,103,1.0,9.0,94,0.00,,,0.01,weatherlink.com 1.10,2013-10-07 05:32:00,
2013-10-07 01:47:00,60.9,59.0,29.95,ENE,78,2.0,10.0,94,0.00,,,0.01,weatherlink.com 1.10,2013-10-07 05:47:00,
2013-10-07 02:02:00,60.8,59.0,29.94,ESE,123,7.0,9.0,94,0.01,,,0.02,weatherlink.com 1.10,2013-10-07 06:02:00,
2013-10-07 02:17:00,61.0,59.0,29.93,SSE,151,3.0,8.0,94,0.01,,,0.02,weatherlink.com 1.10,2013-10-07 06:17:00,
2013-10-07 02:32:00,61.4,60.0,29.92,SE,144,5.0,8.0,94,0.01,,,0.02,weatherlink.com 1.10,2013-10-07 06:32:00,
2013-10-07 02:47:00,61.9,60.0,29.91,ESE,111,2.0,7.0,94,0.01,,,0.02,weatherlink.com 1.10,2013-10-07 06:47:00,
2013-10-07 03:02:00,62.3,61.0,29.91,SSE,167,2.0,8.0,94,0.00,,,0.02,weatherlink.com 1.10,2013-10-07 07:02:00,
2013-10-07 03:18:00,62.3,60.0,29.91,North,350,0.0,17.0,92,0.00,,,0.02,weatherlink.com 1.10,2013-10-07 07:18:00,
2013-10-07 03:32:00,62.3,60.0,29.91,North,355,2.0,9.0,91,0.00,,,0.02,weatherlink.com 1.10,2013-10-07 07:32:00,
2013-10-07 03:47:00,62.5,60.0,29.90,SSE,157,2.0,13.0,90,0.00,,,0.02,weatherlink.com 1.10,2013-10-07 07:47:00,
2013-10-07 04:02:00,62.9,60.0,29.89,SSE,148,7.0,13.0,89,0.00,,,0.02,weatherlink.com 1.10,2013-10-07 08:02:00,
2013-10-07 04:17:00,63.4,60.0,29.89,ENE,74,2.0,9.0,88,0.00,,,0.02,weatherlink.com 1.10,2013-10-07 08:17:00,
2013-10-07 04:32:00,63.7,60.0,29.88,SSE,149,1.0,15.0,87,0.00,,,0.02,weatherlink.com 1.10,2013-10-07 08:32:00,
2013-10-07 04:47:00,64.0,60.0,29.88,WSW,240,2.0,13.0,86,0.00,,,0.02,weatherlink.com 1.10,2013-10-07 08:47:00,
2013-10-07 05:03:00,64.4,60.0,29.87,SE,132,5.0,8.0,85,0.00,,,0.02,weatherlink.com 1.10,2013-10-07 09:03:00,
2013-10-07 05:18:00,64.8,60.0,29.87,SSW,205,4.0,13.0,84,0.00,,,0.02,weatherlink.com 1.10,2013-10-07 09:18:00,
2013-10-07 05:33:00,64.9,60.0,29.86,South,172,2.0,15.0,85,0.00,,,0.02,weatherlink.com 1.10,2013-10-07 09:33:00,
2013-10-07 05:48:00,64.7,60.0,29.86,South,177,2.0,9.0,85,0.00,,,0.02,weatherlink.com 1.10,2013-10-07 09:48:00,
2013-10-07 06:03:00,64.8,60.0,29.86,SSE,155,3.0,12.0,85,0.00,,,0.02,weatherlink.com 1.10,2013-10-07 10:03:00,
2013-10-07 06:18:00,64.9,60.0,29.85,SSE,167,1.0,10.0,84,0.00,,,0.02,weatherlink.com 1.10,2013-10-07 10:18:00,
2013-10-07 06:33:00,65.3,60.0,29.85,SSW,213,5.0,13.0,83,0.00,,,0.02,weatherlink.com 1.10,2013-10-07 10:33:00,
2013-10-07 06:48:00,65.4,60.0,29.85,East,85,2.0,14.0,83,0.00,,,0.02,weatherlink.com 1.10,2013-10-07 10:48:00,
2013-10-07 07:03:00,65.7,60.0,29.86,NNW,329,2.0,15.0,83,0.00,,,0.02,weatherlink.com 1.10,2013-10-07 11:03:00,
2013-10-07 07:18:00,66.2,60.0,29.85,SSE,167,5.0,18.0,81,0.00,,,0.02,weatherlink.com 1.10,2013-10-07 11:18:00,
2013-10-07 07:33:00,66.0,60.0,29.84,SSW,206,2.0,14.0,82,0.00,,,0.02,weatherlink.com 1.10,2013-10-07 11:33:00,
2013-10-07 07:48:00,66.1,61.0,29.84,SSW,202,1.0,11.0,83,0.00,,,0.02,weatherlink.com 1.10,2013-10-07 11:48:00,
2013-10-07 08:03:00,66.2,61.0,29.84,SSW,205,7.0,14.0,83,0.00,,,0.02,weatherlink.com 1.10,2013-10-07 12:03:00,
2013-10-07 08:18:00,66.4,61.0,29.84,South,187,4.0,10.0,82,0.00,,,0.02,weatherlink.com 1.10,2013-10-07 12:18:00,
2013-10-07 08:33:00,66.6,61.0,29.83,ESE,111,5.0,9.0,81,0.00,,,0.02,weatherlink.com 1.10,2013-10-07 12:33:00,
2013-10-07 08:48:00,66.8,60.0,29.83,SW,231,3.0,13.0,80,0.00,,,0.02,weatherlink.com 1.10,2013-10-07 12:48:00,
2013-10-07 09:03:00,67.0,61.0,29.82,NW,310,2.0,15.0,81,0.00,,,0.02,weatherlink.com 1.10,2013-10-07 13:03:00,
2013-10-07 09:18:00,67.1,61.0,29.81,SE,134,6.0,12.0,81,0.00,,,0.02,weatherlink.com 1.10,2013-10-07 13:18:00,
2013-10-07 09:33:00,67.2,62.0,29.80,ESE,108,4.0,14.0,82,0.00,,,0.02,weatherlink.com 1.10,2013-10-07 13:33:00,
2013-10-07 09:48:00,67.7,61.0,29.79,South,188,4.0,14.0,80,0.00,,,0.02,weatherlink.com 1.10,2013-10-07 13:48:00,
2013-10-07 10:03:00,67.7,62.0,29.79,SW,225,6.0,15.0,81,0.00,,,0.02,weatherlink.com 1.10,2013-10-07 14:03:00,
2013-10-07 10:18:00,67.6,62.0,29.79,West,273,3.0,11.0,82,0.00,,,0.02,weatherlink.com 1.10,2013-10-07 14:18:00,
2013-10-07 10:33:00,68.0,62.0,29.78,SSE,157,4.0,17.0,81,0.00,,,0.02,weatherlink.com 1.10,2013-10-07 14:33:00,
2013-10-07 10:48:00,67.5,62.0,29.77,WSW,240,8.0,17.0,82,0.00,,,0.02,weatherlink.com 1.10,2013-10-07 14:48:00,
2013-10-07 11:03:00,67.4,62.0,29.76,SW,217,8.0,14.0,83,0.00,,,0.02,weatherlink.com 1.10,2013-10-07 15:03:00,
2013-10-07 11:18:00,67.0,62.0,29.75,South,180,6.0,15.0,85,0.01,,,0.03,weatherlink.com 1.10,2013-10-07 15:18:00,
2013-10-07 11:33:00,66.8,62.0,29.75,West,260,4.0,17.0,84,0.02,,,0.04,weatherlink.com 1.10,2013-10-07 15:33:00,
2013-10-07 11:48:00,66.7,62.0,29.73,SE,136,7.0,21.0,85,0.03,,,0.05,weatherlink.com 1.10,2013-10-07 15:48:00,
2013-10-07 12:03:00,66.0,62.0,29.71,SSE,150,3.0,13.0,88,0.08,,,0.10,weatherlink.com 1.10,2013-10-07 16:03:00,
2013-10-07 12:18:00,65.8,63.0,29.70,SE,144,4.0,9.0,90,0.13,,,0.16,weatherlink.com 1.10,2013-10-07 16:18:00,
2013-10-07 12:33:00,65.7,63.0,29.69,SSW,209,8.0,9.0,92,0.18,,,0.22,weatherlink.com 1.10,2013-10-07 16:33:00,
2013-10-07 12:49:00,66.0,63.0,29.67,ESE,123,4.0,10.0,91,0.22,,,0.27,weatherlink.com 1.10,2013-10-07 16:49:00,
2013-10-07 13:04:00,66.3,64.0,29.67,SW,217,4.0,15.0,92,0.23,,,0.33,weatherlink.com 1.10,2013-10-07 17:04:00,
2013-10-07 13:19:00,66.7,64.0,29.65,SSW,193,1.0,13.0,92,0.20,,,0.36,weatherlink.com 1.10,2013-10-07 17:19:00,
2013-10-07 13:34:00,67.0,64.0,29.65,WSW,252,7.0,17.0,91,0.17,,,0.39,weatherlink.com 1.10,2013-10-07 17:34:00,
2013-10-07 13:49:00,67.2,65.0,29.63,South,179,2.0,15.0,91,0.16,,,0.43,weatherlink.com 1.10,2013-10-07 17:49:00,
2013-10-07 15:12:00,62.5,60.0,29.66,SE,131,0.0,8.0,91,0.87,,,1.37,weatherlink.com 1.10,2013-10-07 19:12:00,
2013-10-07 15:19:00,62.6,60.0,29.66,NE,38,2.0,5.0,92,0.84,,,1.37,weatherlink.com 1.10,2013-10-07 19:19:00,
2013-10-07 15:34:00,62.7,61.0,29.64,ENE,71,1.0,3.0,93,0.76,,,1.38,weatherlink.com 1.10,2013-10-07 19:34:00,
2013-10-07 15:49:00,62.8,61.0,29.65,NNE,28,1.0,4.0,93,0.37,,,1.39,weatherlink.com 1.10,2013-10-07 19:49:00,
2013-10-07 16:04:00,62.9,61.0,29.66,West,279,0.0,6.0,93,0.03,,,1.39,weatherlink.com 1.10,2013-10-07 20:04:00,
2013-10-07 16:19:00,62.8,60.0,29.68,NNW,329,1.0,12.0,91,0.02,,,1.39,weatherlink.com 1.10,2013-10-07 20:19:00,
2013-10-07 16:34:00,62.3,59.0,29.69,SW,231,5.0,12.0,88,0.01,,,1.39,weatherlink.com 1.10,2013-10-07 20:34:00,
2013-10-07 16:49:00,61.1,58.0,29.71,North,10,5.0,8.0,89,0.00,,,1.39,weatherlink.com 1.10,2013-10-07 20:49:00,
2013-10-07 17:04:00,60.4,57.0,29.72,NNW,335,3.0,10.0,88,0.00,,,1.39,weatherlink.com 1.10,2013-10-07 21:04:00,
2013-10-07 17:19:00,59.3,56.0,29.74,North,360,6.0,10.0,89,0.00,,,1.39,weatherlink.com 1.10,2013-10-07 21:19:00,
2013-10-07 17:34:00,58.2,54.0,29.73,NNE,28,1.0,11.0,87,0.00,,,1.39,weatherlink.com 1.10,2013-10-07 21:34:00,
2013-10-07 17:49:00,56.8,52.0,29.78,NW,310,6.0,12.0,83,0.00,,,1.39,weatherlink.com 1.10,2013-10-07 21:49:00,
2013-10-07 18:04:00,55.9,52.0,29.78,SW,234,5.0,10.0,85,0.00,,,1.39,weatherlink.com 1.10,2013-10-07 22:04:00,
2013-10-07 18:19:00,55.3,51.0,29.80,NNW,348,1.0,14.0,86,0.00,,,1.39,weatherlink.com 1.10,2013-10-07 22:19:00,
2013-10-07 18:34:00,54.7,50.0,29.81,WNW,288,11.0,20.0,83,0.01,,,1.40,weatherlink.com 1.10,2013-10-07 22:34:00,
2013-10-07 18:49:00,55.3,49.0,29.80,West,278,3.0,11.0,80,0.01,,,1.40,weatherlink.com 1.10,2013-10-07 22:49:00,
2013-10-07 19:04:00,55.3,49.0,29.80,NNE,18,1.0,11.0,79,0.01,,,1.40,weatherlink.com 1.10,2013-10-07 23:04:00,
2013-10-07 19:19:00,54.6,49.0,29.81,NW,324,4.0,7.0,82,0.01,,,1.40,weatherlink.com 1.10,2013-10-07 23:19:00,
2013-10-07 19:34:00,54.7,48.0,29.82,North,9,4.0,9.0,79,0.00,,,1.40,weatherlink.com 1.10,2013-10-07 23:34:00,
2013-10-07 19:49:00,54.7,49.0,29.82,NW,320,0.0,9.0,80,0.00,,,1.40,weatherlink.com 1.10,2013-10-07 23:49:00,
2013-10-07 20:04:00,54.4,49.0,29.82,ESE,120,1.0,6.0,82,0.00,,,1.40,weatherlink.com 1.10,2013-10-08 00:04:00,
2013-10-07 20:19:00,54.5,48.0,29.83,North,11,3.0,8.0,80,0.00,,,1.40,weatherlink.com 1.10,2013-10-08 00:19:00,
2013-10-07 20:34:00,54.5,48.0,29.83,NW,324,5.0,6.0,79,0.00,,,1.40,weatherlink.com 1.10,2013-10-08 00:34:00,
2013-10-07 20:49:00,54.4,48.0,29.84,NNE,28,1.0,8.0,79,0.00,,,1.40,weatherlink.com 1.10,2013-10-08 00:49:00,
2013-10-07 21:04:00,54.0,48.0,29.84,NNW,346,5.0,7.0,80,0.00,,,1.40,weatherlink.com 1.10,2013-10-08 01:04:00,
2013-10-07 21:19:00,53.8,47.0,29.85,NNE,29,3.0,4.0,79,0.00,,,1.40,weatherlink.com 1.10,2013-10-08 01:19:00,
2013-10-07 21:34:00,53.5,47.0,29.85,NE,44,2.0,7.0,78,0.00,,,1.40,weatherlink.com 1.10,2013-10-08 01:34:00,
2013-10-07 21:49:00,53.5,46.0,29.86,NNE,18,2.0,10.0,77,0.00,,,1.40,weatherlink.com 1.10,2013-10-08 01:49:00,
2013-10-07 22:04:00,53.2,45.0,29.86,North,11,1.0,9.0,75,0.00,,,1.40,weatherlink.com 1.10,2013-10-08 02:04:00,
2013-10-07 22:19:00,52.9,45.0,29.86,NNW,338,3.0,5.0,74,0.00,,,1.40,weatherlink.com 1.10,2013-10-08 02:19:00,
2013-10-07 22:34:00,52.5,44.0,29.87,NNE,30,2.0,6.0,73,0.00,,,1.40,weatherlink.com 1.10,2013-10-08 02:34:00,
2013-10-07 22:49:00,52.2,44.0,29.88,ENE,60,3.0,8.0,73,0.00,,,1.40,weatherlink.com 1.10,2013-10-08 02:49:00,
2013-10-07 23:04:00,51.8,43.0,29.88,NNE,15,1.0,7.0,72,0.00,,,1.40,weatherlink.com 1.10,2013-10-08 03:04:00,
2013-10-07 23:19:00,51.9,42.0,29.89,NNE,28,4.0,9.0,70,0.00,,,1.40,weatherlink.com 1.10,2013-10-08 03:19:00,
2013-10-07 23:35:00,51.9,42.0,29.89,NW,323,6.0,8.0,70,0.00,,,1.40,weatherlink.com 1.10,2013-10-08 03:35:00,
2013-10-07 23:50:00,51.6,42.0,29.89,NNE,13,3.0,13.0,70,0.00,,,1.40,weatherlink.com 1.10,2013-10-08 03:50:00,